Time;durP1;ratioP1;P1;durP2;ratioP2;P2;SDS_P1;SDS_P2;PMS_P1;PMS_P2;Temp;Humidity;BMP_temperature;BMP_pressure;BME280_temperature;BME280_humidity;BME280_pressure;Samples;Min_cycle;Max_cycle;Signal;HPM_P1;HPM_P2
2022/07/16 00:02:11;;;;;;;9.67;2.40;;;18.50;54.30;;;;;;4966984;28;20470;-50
2022/07/16 00:04:38;;;;;;;4.10;2.50;;;18.50;54.50;;;;;;4966765;28;20934;-50
2022/07/16 00:07:05;;;;;;;3.13;2.40;;;18.40;54.80;;;;;;4968724;28;20943;-49
2022/07/16 00:09:32;;;;;;;2.27;2.07;;;18.40;54.90;;;;;;4969283;28;21134;-48
2022/07/16 00:11:58;;;;;;;3.93;2.90;;;18.30;55.00;;;;;;4971912;28;20540;-50
2022/07/16 00:14:25;;;;;;;2.70;2.47;;;18.30;55.20;;;;;;4971026;28;21127;-49
2022/07/16 00:16:52;;;;;;;4.00;2.50;;;18.30;55.10;;;;;;4967245;28;20454;-49
2022/07/16 00:19:23;;;;;;;2.40;2.20;;;18.30;55.00;;;;;;4970485;28;20475;-49
2022/07/16 00:21:52;;;;;;;5.60;3.30;;;18.30;55.20;;;;;;4971146;28;20549;-50
2022/07/16 00:24:20;;;;;;;2.90;2.00;;;18.30;55.20;;;;;;4957558;28;20847;-49
2022/07/16 00:26:47;;;;;;;2.13;1.93;;;18.20;55.40;;;;;;4970924;28;20545;-49
2022/07/16 00:29:15;;;;;;;2.50;2.30;;;18.20;55.60;;;;;;4970564;28;20466;-49
2022/07/16 00:31:44;;;;;;;2.87;2.40;;;18.20;55.50;;;;;;4972018;28;20472;-49
2022/07/16 00:34:11;;;;;;;3.30;3.00;;;18.10;55.60;;;;;;4950697;28;20511;-49
2022/07/16 00:36:39;;;;;;;2.70;2.50;;;18.10;55.70;;;;;;4967720;28;20493;-49
2022/07/16 00:39:08;;;;;;;4.87;2.53;;;18.00;55.90;;;;;;4968974;28;20458;-49
2022/07/16 00:41:37;;;;;;;3.03;2.07;;;18.00;56.10;;;;;;4951759;28;20465;-49
2022/07/16 00:44:10;;;;;;;2.63;2.43;;;17.90;56.10;;;;;;4970560;28;20466;-48
2022/07/16 00:46:38;;;;;;;2.83;2.40;;;17.90;56.40;;;;;;4967593;28;20474;-49
2022/07/16 00:49:09;;;;;;;4.70;2.20;;;17.80;56.20;;;;;;4968810;28;20489;-48
2022/07/16 00:51:41;;;;;;;2.43;2.23;;;17.80;56.50;;;;;;4970345;28;20468;-49
2022/07/16 00:54:08;;;;;;;5.20;2.50;;;17.70;57.00;;;;;;4969281;28;20497;-49
2022/07/16 00:56:35;;;;;;;2.47;2.27;;;17.70;56.70;;;;;;4951972;28;20474;-49
2022/07/16 00:59:02;;;;;;;3.13;2.60;;;17.70;56.80;;;;;;4969917;28;20549;-50
2022/07/16 01:01:29;;;;;;;2.47;2.10;;;17.70;56.90;;;;;;4949094;28;20987;-49
2022/07/16 01:03:56;;;;;;;3.80;2.53;;;17.60;57.10;;;;;;4953357;28;20470;-49
2022/07/16 01:06:23;;;;;;;3.70;2.40;;;17.60;56.90;;;;;;4954515;28;20493;-50
2022/07/16 01:08:50;;;;;;;2.87;2.20;;;17.60;56.90;;;;;;4969704;28;20478;-50
2022/07/16 01:11:20;;;;;;;2.53;2.30;;;17.50;57.10;;;;;;4951456;28;21009;-49
2022/07/16 01:13:49;;;;;;;2.57;2.37;;;17.50;57.30;;;;;;4970137;28;20517;-50
2022/07/16 01:16:18;;;;;;;2.50;2.27;;;17.40;57.10;;;;;;4969353;28;20472;-49
2022/07/16 01:18:47;;;;;;;2.70;1.97;;;17.40;57.40;;;;;;4965007;28;20925;-50
2022/07/16 01:21:15;;;;;;;2.57;2.23;;;17.30;57.60;;;;;;4964381;28;20468;-50
2022/07/16 01:23:45;;;;;;;3.40;2.40;;;17.30;58.00;;;;;;4970951;28;20470;-49
2022/07/16 01:26:12;;;;;;;3.20;2.80;;;17.20;58.40;;;;;;4967438;28;20462;-50
2022/07/16 01:28:39;;;;;;;3.07;2.10;;;17.20;58.50;;;;;;4955826;28;20450;-49
2022/07/16 01:31:06;;;;;;;4.33;2.80;;;17.20;58.60;;;;;;4968449;28;20473;-50
2022/07/16 01:33:36;;;;;;;2.97;2.63;;;17.20;58.60;;;;;;4970514;28;20609;-49
2022/07/16 01:36:09;;;;;;;3.07;2.87;;;17.20;58.80;;;;;;4966823;28;20562;-50
2022/07/16 01:38:41;;;;;;;4.60;2.30;;;17.20;58.90;;;;;;4948952;28;20450;-49
2022/07/16 01:41:09;;;;;;;4.23;3.93;;;17.30;58.70;;;;;;4967324;28;20494;-50
2022/07/16 01:43:36;;;;;;;3.70;2.50;;;17.30;58.70;;;;;;4953747;28;20971;-49
2022/07/16 01:46:03;;;;;;;4.40;2.53;;;17.30;58.80;;;;;;4957228;28;20449;-50
2022/07/16 01:48:31;;;;;;;2.93;2.20;;;17.30;58.70;;;;;;4970995;28;20457;-49
2022/07/16 01:50:58;;;;;;;3.00;2.37;;;17.30;58.80;;;;;;4970252;28;21137;-50
2022/07/16 01:53:28;;;;;;;4.53;2.30;;;17.30;59.00;;;;;;4969595;28;20993;-49
2022/07/16 01:55:55;;;;;;;2.40;2.20;;;17.30;59.20;;;;;;4968354;28;20461;-50
2022/07/16 01:58:22;;;;;;;3.80;2.80;;;17.20;59.40;;;;;;4967148;28;20807;-50
2022/07/16 02:00:49;;;;;;;7.37;3.27;;;17.20;59.40;;;;;;4970443;28;20502;-50
2022/07/16 02:03:15;;;;;;;2.30;2.20;;;17.20;59.40;;;;;;4969055;28;20477;-50
2022/07/16 02:05:43;;;;;;;2.27;2.10;;;17.20;59.20;;;;;;4966583;28;20528;-50
2022/07/16 02:08:10;;;;;;;5.77;2.40;;;17.20;59.60;;;;;;4948924;28;20847;-50
2022/07/16 02:10:38;;;;;;;3.07;2.77;;;17.20;59.60;;;;;;4950498;28;20462;-49
2022/07/16 02:13:05;;;;;;;2.93;2.03;;;17.20;59.70;;;;;;4943456;28;20459;-49
2022/07/16 02:15:33;;;;;;;4.70;2.30;;;17.10;59.90;;;;;;4966774;28;20581;-49
2022/07/16 02:18:00;;;;;;;2.67;2.00;;;17.10;59.90;;;;;;4968404;28;20490;-49
2022/07/16 02:20:27;;;;;;;2.60;2.27;;;17.10;59.80;;;;;;4955151;28;20965;-47
2022/07/16 02:22:55;;;;;;;3.30;2.50;;;17.10;59.70;;;;;;4972767;28;20830;-47
2022/07/16 02:25:23;;;;;;;3.83;3.03;;;17.10;60.00;;;;;;4955329;28;20474;-48
2022/07/16 02:28:08;;;;;;;2.80;2.60;;;17.00;60.20;;;;;;4972094;28;20462;-48
2022/07/16 02:30:44;;;;;;;4.20;2.53;;;17.00;60.30;;;;;;4956245;28;20469;-47
2022/07/16 02:33:13;;;;;;;3.20;2.83;;;17.00;60.40;;;;;;4954507;28;20461;-47
2022/07/16 02:35:41;;;;;;;3.30;3.00;;;16.90;60.60;;;;;;4966965;28;20887;-44
2022/07/16 02:38:09;;;;;;;2.90;2.53;;;16.90;60.70;;;;;;4966768;28;20462;-45
2022/07/16 02:40:37;;;;;;;3.10;2.83;;;16.90;60.70;;;;;;4952734;28;20468;-45
2022/07/16 02:43:05;;;;;;;5.90;3.10;;;16.90;60.80;;;;;;4966238;28;20472;-46
2022/07/16 02:45:37;;;;;;;5.33;2.70;;;16.90;60.70;;;;;;4952478;28;20474;-45
2022/07/16 02:48:05;;;;;;;3.73;2.67;;;16.90;60.70;;;;;;4953482;28;20951;-46
2022/07/16 02:50:32;;;;;;;3.17;2.77;;;16.90;60.80;;;;;;4967412;28;20474;-46
2022/07/16 02:52:59;;;;;;;3.80;2.70;;;16.80;61.00;;;;;;4969475;28;20442;-46
2022/07/16 02:55:26;;;;;;;2.83;2.63;;;16.80;61.20;;;;;;4967938;28;20504;-46
2022/07/16 02:57:53;;;;;;;2.60;2.40;;;16.80;61.20;;;;;;4966900;28;20466;-46
2022/07/16 03:00:20;;;;;;;2.90;2.43;;;16.80;61.20;;;;;;4968135;28;20466;-47
2022/07/16 03:02:47;;;;;;;3.03;2.60;;;16.80;61.20;;;;;;4952129;28;20458;-46
2022/07/16 03:05:14;;;;;;;4.70;2.60;;;16.70;61.40;;;;;;4965791;28;21038;-46
2022/07/16 03:07:41;;;;;;;2.80;2.60;;;16.80;61.20;;;;;;4967979;28;20884;-46
2022/07/16 03:10:09;;;;;;;6.03;2.80;;;16.80;61.20;;;;;;4966589;28;20470;-46
2022/07/16 03:12:36;;;;;;;2.47;2.27;;;16.80;61.20;;;;;;4966214;28;20472;-44
2022/07/16 03:15:17;;;;;;;2.83;2.53;;;16.70;61.20;;;;;;4965067;28;20489;-44
2022/07/16 03:17:44;;;;;;;2.17;2.07;;;16.70;61.20;;;;;;4967074;28;20860;-44
2022/07/16 03:20:12;;;;;;;4.47;2.80;;;16.80;61.00;;;;;;4963640;28;20517;-45
2022/07/16 03:22:43;;;;;;;2.90;2.70;;;16.80;60.90;;;;;;4968611;28;20461;-44
2022/07/16 03:25:10;;;;;;;2.57;2.37;;;16.70;61.00;;;;;;4965301;28;20589;-45
2022/07/16 03:27:37;;;;;;;2.90;2.40;;;16.70;61.00;;;;;;4966280;28;20473;-45
2022/07/16 03:30:04;;;;;;;2.63;2.43;;;16.70;61.20;;;;;;4948119;28;20941;-45
2022/07/16 03:32:31;;;;;;;2.77;2.50;;;16.70;61.20;;;;;;4968637;28;20479;-44
2022/07/16 03:34:58;;;;;;;2.00;1.90;;;16.70;61.20;;;;;;4966083;28;20494;-45
2022/07/16 03:37:25;;;;;;;3.57;2.10;;;16.60;61.20;;;;;;4966095;28;20462;-45
2022/07/16 03:39:51;;;;;;;3.33;2.80;;;16.60;61.20;;;;;;4945868;28;20516;-44
2022/07/16 03:42:18;;;;;;;2.67;2.47;;;16.60;61.20;;;;;;4966727;28;20473;-44
2022/07/16 03:44:45;;;;;;;3.23;2.70;;;16.60;61.20;;;;;;4951692;28;20470;-45
2022/07/16 03:47:11;;;;;;;6.40;2.57;;;16.60;61.40;;;;;;4968321;28;20574;-44
2022/07/16 03:49:38;;;;;;;2.47;2.27;;;16.50;61.40;;;;;;4966134;28;20477;-44
2022/07/16 03:52:05;;;;;;;4.07;2.70;;;16.50;61.40;;;;;;4967280;28;20457;-44
2022/07/16 03:54:32;;;;;;;10.40;3.43;;;16.60;61.20;;;;;;4951110;28;20888;-45
2022/07/16 03:56:59;;;;;;;5.43;2.70;;;16.60;61.00;;;;;;4964741;28;20453;-44
2022/07/16 03:59:25;;;;;;;2.40;2.20;;;16.50;60.90;;;;;;4947917;28;20963;-44
2022/07/16 04:01:52;;;;;;;3.90;3.00;;;16.50;60.90;;;;;;4965754;28;21780;-45
2022/07/16 04:04:19;;;;;;;2.80;2.23;;;16.50;61.10;;;;;;4966401;28;20988;-44
2022/07/16 04:06:46;;;;;;;2.27;2.07;;;16.50;61.30;;;;;;4966232;28;20469;-44
2022/07/16 04:09:12;;;;;;;3.40;2.10;;;16.50;61.40;;;;;;4968975;28;21053;-44
2022/07/16 04:11:39;;;;;;;2.43;2.10;;;16.50;61.30;;;;;;4966569;28;20476;-44
2022/07/16 04:14:06;;;;;;;2.43;2.17;;;16.50;61.20;;;;;;4967212;28;20903;-45
2022/07/16 04:16:33;;;;;;;5.23;2.47;;;16.50;61.20;;;;;;4966206;28;20457;-45
2022/07/16 04:18:59;;;;;;;4.47;2.90;;;16.50;61.00;;;;;;4966077;28;20458;-45
2022/07/16 04:21:26;;;;;;;3.40;3.20;;;16.60;60.50;;;;;;4963568;28;20908;-45
2022/07/16 04:23:53;;;;;;;5.60;3.30;;;16.60;60.20;;;;;;4964134;28;20470;-46
2022/07/16 04:26:20;;;;;;;2.70;2.50;;;16.70;60.10;;;;;;4966235;28;20466;-45
2022/07/16 04:28:47;;;;;;;2.00;1.80;;;16.70;60.00;;;;;;4964836;28;20502;-45
2022/07/16 04:31:14;;;;;;;3.10;2.37;;;16.70;60.10;;;;;;4968020;28;20462;-45
2022/07/16 04:33:40;;;;;;;5.97;2.40;;;16.80;59.70;;;;;;4951547;28;20472;-44
2022/07/16 04:36:07;;;;;;;9.30;2.40;;;16.80;59.60;;;;;;4962261;28;21017;-44
2022/07/16 04:38:34;;;;;;;3.10;2.03;;;16.80;59.50;;;;;;4963223;28;20462;-44
2022/07/16 04:41:01;;;;;;;4.30;2.37;;;16.80;59.60;;;;;;4962938;28;20466;-44
2022/07/16 04:43:28;;;;;;;1.77;1.67;;;16.90;59.90;;;;;;4966183;28;20476;-45
2022/07/16 04:45:54;;;;;;;2.97;1.90;;;16.90;59.70;;;;;;4963539;28;20472;-44
2022/07/16 04:48:21;;;;;;;3.43;1.90;;;16.90;59.50;;;;;;4952415;28;20465;-45
2022/07/16 04:50:48;;;;;;;2.70;2.10;;;16.90;59.60;;;;;;4964847;28;21113;-46
2022/07/16 04:53:15;;;;;;;1.80;1.63;;;17.00;59.70;;;;;;4966977;28;20472;-45
2022/07/16 04:55:42;;;;;;;7.03;2.30;;;17.00;59.50;;;;;;4963949;28;20501;-44
2022/07/16 04:58:09;;;;;;;2.23;2.00;;;17.00;59.70;;;;;;4969164;28;20462;-44
2022/07/16 05:00:36;;;;;;;3.23;1.60;;;16.90;60.10;;;;;;4965457;28;20462;-45
2022/07/16 05:03:03;;;;;;;2.67;2.00;;;16.90;60.30;;;;;;4965807;28;20546;-45
2022/07/16 05:05:33;;;;;;;1.87;1.70;;;17.00;60.20;;;;;;4967467;28;20469;-44
2022/07/16 05:08:01;;;;;;;5.00;2.40;;;17.10;60.50;;;;;;4967293;28;20466;-45
2022/07/16 05:10:29;;;;;;;2.53;2.00;;;17.10;60.10;;;;;;4962837;28;20458;-44
2022/07/16 05:12:57;;;;;;;3.13;2.00;;;17.20;60.20;;;;;;4964291;28;20462;-45
2022/07/16 05:15:26;;;;;;;3.17;2.27;;;17.20;60.00;;;;;;4944176;28;21012;-45
2022/07/16 05:17:52;;;;;;;3.00;1.90;;;17.20;59.90;;;;;;4967261;28;21217;-44
2022/07/16 05:20:19;;;;;;;2.73;1.70;;;17.20;60.00;;;;;;4963662;28;20455;-50
2022/07/16 05:22:46;;;;;;;6.97;2.03;;;17.30;60.50;;;;;;4966895;28;20475;-50
2022/07/16 05:25:15;;;;;;;3.23;2.17;;;17.30;60.20;;;;;;4963463;28;20459;-50
2022/07/16 05:27:42;;;;;;;2.80;2.10;;;17.40;60.00;;;;;;4965885;28;20541;-50
2022/07/16 05:30:09;;;;;;;3.53;2.10;;;17.40;60.20;;;;;;4966773;28;20469;-50
2022/07/16 05:32:43;;;;;;;2.70;2.03;;;17.50;59.80;;;;;;4970884;28;20472;-50
2022/07/16 05:35:14;;;;;;;2.30;1.87;;;17.50;60.10;;;;;;4954556;28;20498;-50
2022/07/16 05:37:41;;;;;;;2.83;1.80;;;17.60;60.40;;;;;;4968096;28;20478;-49
2022/07/16 05:40:10;;;;;;;7.00;2.07;;;17.70;59.60;;;;;;4964254;28;20462;-50
2022/07/16 05:42:37;;;;;;;3.40;2.03;;;17.80;59.30;;;;;;4965962;28;20557;-50
2022/07/16 05:45:06;;;;;;;2.67;1.53;;;17.90;59.00;;;;;;4966504;28;20474;-50
2022/07/16 05:47:33;;;;;;;4.37;1.87;;;17.90;59.00;;;;;;4967696;28;20562;-50
2022/07/16 05:50:05;;;;;;;4.13;1.83;;;18.00;59.00;;;;;;4966980;28;20465;-50
2022/07/16 05:52:32;;;;;;;2.67;1.70;;;18.00;58.80;;;;;;4968307;28;20477;-49
2022/07/16 05:54:58;;;;;;;4.40;2.17;;;18.00;58.90;;;;;;4970176;28;20492;-50
2022/07/16 05:57:25;;;;;;;3.40;1.80;;;18.10;58.70;;;;;;4969345;28;20461;-49
2022/07/16 05:59:52;;;;;;;1.93;1.80;;;18.10;58.80;;;;;;4969074;28;20470;-49
2022/07/16 06:02:19;;;;;;;3.90;1.60;;;18.20;58.80;;;;;;4969655;28;22287;-49
2022/07/16 06:04:46;;;;;;;4.30;1.97;;;18.20;58.80;;;;;;4969563;28;20453;-50
2022/07/16 06:07:12;;;;;;;1.53;1.43;;;18.30;58.80;;;;;;4945540;28;20474;-50
2022/07/16 06:09:39;;;;;;;2.40;1.67;;;18.30;58.50;;;;;;4962151;28;20465;-50
2022/07/16 06:12:06;;;;;;;2.50;1.60;;;18.40;58.50;;;;;;4946816;28;20453;-50
2022/07/16 06:14:33;;;;;;;5.90;1.47;;;18.40;58.50;;;;;;4953453;28;20462;-50
2022/07/16 06:17:00;;;;;;;4.40;1.63;;;18.50;57.30;;;;;;4967125;28;20461;-48
2022/07/16 06:19:26;;;;;;;2.83;1.17;;;18.60;57.60;;;;;;4968626;28;20466;-49
2022/07/16 06:21:53;;;;;;;2.30;1.60;;;18.70;57.60;;;;;;4965262;28;20466;-49
2022/07/16 06:24:20;;;;;;;2.90;1.47;;;18.80;57.20;;;;;;4962692;28;20465;-49
2022/07/16 06:26:47;;;;;;;4.60;1.57;;;18.90;57.10;;;;;;4968229;28;20569;-49
2022/07/16 06:29:15;;;;;;;3.80;1.40;;;19.10;56.60;;;;;;4946751;28;20485;-49
2022/07/16 06:31:43;;;;;;;2.13;1.20;;;19.30;55.80;;;;;;4965775;28;20474;-49
2022/07/16 06:34:10;;;;;;;2.03;1.10;;;19.40;54.90;;;;;;4966646;28;20455;-49
2022/07/16 06:36:37;;;;;;;1.67;1.40;;;19.40;54.90;;;;;;4966114;28;21168;-49
2022/07/16 06:39:04;;;;;;;3.83;1.43;;;19.60;54.50;;;;;;4967781;28;20540;-48
2022/07/16 06:41:31;;;;;;;3.20;1.30;;;19.60;54.80;;;;;;4965081;28;20462;-49
2022/07/16 06:43:58;;;;;;;3.40;1.67;;;19.70;54.10;;;;;;4968422;28;20458;-49
2022/07/16 06:46:25;;;;;;;1.60;1.43;;;19.90;54.20;;;;;;4969180;28;20462;-49
2022/07/16 06:48:52;;;;;;;1.60;1.27;;;20.00;53.80;;;;;;4967718;28;20846;-48
2022/07/16 06:51:19;;;;;;;1.20;1.03;;;20.00;53.90;;;;;;4967575;28;20963;-49
2022/07/16 06:53:46;;;;;;;6.60;1.40;;;20.10;53.80;;;;;;4964744;28;21009;-48
2022/07/16 06:56:13;;;;;;;2.47;1.30;;;20.20;53.70;;;;;;4965369;28;20920;-48
2022/07/16 06:58:39;;;;;;;2.50;1.30;;;20.30;53.40;;;;;;4964659;28;20504;-48
2022/07/16 07:01:08;;;;;;;3.63;1.30;;;20.40;53.40;;;;;;4949402;28;20469;-50
2022/07/16 07:03:40;;;;;;;3.60;1.37;;;20.50;52.80;;;;;;4962697;28;20458;-49
2022/07/16 07:06:08;;;;;;;3.40;1.40;;;20.60;53.00;;;;;;4967430;28;20477;-49
2022/07/16 07:08:35;;;;;;;1.73;1.20;;;20.70;53.30;;;;;;4965132;28;20457;-49
2022/07/16 07:11:02;;;;;;;2.67;1.20;;;20.80;52.70;;;;;;4965388;28;21014;-49
2022/07/16 07:13:32;;;;;;;4.00;2.07;;;21.00;52.30;;;;;;4966388;28;20477;-50
2022/07/16 07:15:59;;;;;;;3.60;1.73;;;21.10;52.20;;;;;;4965332;28;20490;-49
2022/07/16 07:18:28;;;;;;;2.13;1.60;;;21.30;51.70;;;;;;4966166;28;20462;-45
2022/07/16 07:20:56;;;;;;;4.37;1.67;;;21.50;51.30;;;;;;4961162;28;20521;-46
2022/07/16 07:23:23;;;;;;;4.43;1.47;;;21.50;50.80;;;;;;4965231;28;20466;-46
2022/07/16 07:25:50;;;;;;;1.60;1.50;;;21.70;51.10;;;;;;4967172;28;21079;-45
2022/07/16 07:28:17;;;;;;;3.60;2.03;;;21.80;51.00;;;;;;4963144;28;20462;-45
2022/07/16 07:30:44;;;;;;;4.80;1.70;;;22.00;50.60;;;;;;4965550;28;20485;-45
2022/07/16 07:33:11;;;;;;;4.10;1.77;;;22.20;49.90;;;;;;4946044;28;20557;-45
2022/07/16 07:35:38;;;;;;;1.77;1.50;;;22.30;49.90;;;;;;4967011;28;21007;-46
2022/07/16 07:38:05;;;;;;;3.63;1.30;;;22.50;48.50;;;;;;4965123;28;20472;-47
2022/07/16 07:40:32;;;;;;;1.87;1.73;;;22.70;48.70;;;;;;4966406;28;20458;-46
2022/07/16 07:43:00;;;;;;;2.50;1.70;;;22.80;48.40;;;;;;4966024;28;20975;-46
2022/07/16 07:45:27;;;;;;;2.50;1.80;;;22.90;48.20;;;;;;4964573;28;20466;-46
2022/07/16 07:47:53;;;;;;;1.53;1.43;;;23.10;47.80;;;;;;4966294;28;20536;-46
2022/07/16 07:50:20;;;;;;;3.43;2.27;;;23.30;47.30;;;;;;4967171;28;20497;-46
2022/07/16 07:52:47;;;;;;;2.10;1.43;;;23.40;46.80;;;;;;4967798;28;20552;-47
2022/07/16 07:55:14;;;;;;;2.30;1.60;;;23.60;46.10;;;;;;4964679;28;20854;-47
2022/07/16 07:57:42;;;;;;;2.37;1.40;;;23.80;46.30;;;;;;4967410;28;20826;-46
2022/07/16 08:00:09;;;;;;;5.00;1.80;;;23.90;46.20;;;;;;4964446;28;20493;-45
2022/07/16 08:02:37;;;;;;;2.30;1.60;;;24.10;46.00;;;;;;4966529;28;20553;-46
2022/07/16 08:05:04;;;;;;;2.83;1.33;;;24.30;45.80;;;;;;4960976;28;20461;-48
2022/07/16 08:07:31;;;;;;;2.00;1.37;;;24.40;45.80;;;;;;4942415;28;20465;-46
2022/07/16 08:09:58;;;;;;;4.17;1.50;;;24.60;44.70;;;;;;4961103;28;20461;-47
2022/07/16 08:12:25;;;;;;;2.20;1.63;;;24.70;43.90;;;;;;4963689;28;20453;-47
2022/07/16 08:14:51;;;;;;;4.53;1.50;;;24.80;43.80;;;;;;4964455;28;20466;-47
2022/07/16 08:17:18;;;;;;;2.50;1.93;;;24.80;43.60;;;;;;4964310;28;20489;-49
2022/07/16 08:19:45;;;;;;;1.30;1.20;;;24.90;43.30;;;;;;4966098;28;20473;-46
2022/07/16 08:22:12;;;;;;;2.60;1.50;;;25.10;42.90;;;;;;4963611;28;20493;-46
2022/07/16 08:27:25;;;;;;;1.80;1.40;;;25.30;42.70;;;;;;4961160;28;20473;-46
2022/07/16 08:29:53;;;;;;;1.80;1.30;;;25.40;42.40;;;;;;4971204;28;20476;-47
2022/07/16 08:32:19;;;;;;;2.40;1.57;;;25.40;42.00;;;;;;4971444;28;20445;-47
2022/07/16 08:34:46;;;;;;;3.10;1.60;;;25.40;42.00;;;;;;4953405;28;20552;-47
2022/07/16 08:37:13;;;;;;;3.50;1.70;;;25.50;41.90;;;;;;4955116;28;20492;-45
2022/07/16 08:39:42;;;;;;;2.47;1.37;;;25.60;41.30;;;;;;4967899;28;20480;-47
2022/07/16 08:42:12;;;;;;;1.57;1.40;;;25.60;41.50;;;;;;4968776;28;20559;-47
2022/07/16 08:44:40;;;;;;;1.70;1.53;;;25.70;41.80;;;;;;4968113;28;20449;-45
2022/07/16 08:47:13;;;;;;;2.20;1.47;;;25.70;42.10;;;;;;4968736;28;20461;-45
2022/07/16 08:49:44;;;;;;;2.47;1.70;;;25.70;42.10;;;;;;4963486;28;20469;-46
2022/07/16 08:52:12;;;;;;;2.27;1.50;;;25.80;41.50;;;;;;4965181;28;20458;-46
2022/07/16 08:54:40;;;;;;;1.83;1.73;;;25.90;41.70;;;;;;4965568;28;20559;-46
2022/07/16 08:57:08;;;;;;;4.53;1.73;;;26.00;41.60;;;;;;4952404;28;20485;-45
2022/07/16 08:59:36;;;;;;;2.57;1.73;;;26.10;41.30;;;;;;4969158;28;21219;-46
2022/07/16 09:02:03;;;;;;;3.77;1.50;;;26.30;41.30;;;;;;4966559;28;21531;-45
2022/07/16 09:04:35;;;;;;;2.80;1.63;;;26.40;40.90;;;;;;4964069;28;20556;-46
2022/07/16 09:07:02;;;;;;;4.67;2.07;;;26.30;41.10;;;;;;4967880;28;20866;-46
2022/07/16 09:09:29;;;;;;;1.97;1.73;;;26.30;41.60;;;;;;4969355;28;20560;-45
2022/07/16 09:11:55;;;;;;;2.13;1.50;;;26.30;41.50;;;;;;4965811;28;20843;-46
2022/07/16 09:14:22;;;;;;;1.83;1.50;;;26.40;41.30;;;;;;4966373;28;20500;-46
2022/07/16 09:16:53;;;;;;;4.10;1.87;;;26.50;41.30;;;;;;4964245;28;21348;-44
2022/07/16 09:19:21;;;;;;;1.50;1.40;;;26.60;40.70;;;;;;4965813;28;20477;-47
2022/07/16 09:22:10;;;;;;;2.00;1.70;;;26.70;40.60;;;;;;4967097;28;20500;-45
2022/07/16 09:24:44;;;;;;;2.27;2.07;;;26.90;40.40;;;;;;4966920;28;20457;-46
2022/07/16 09:27:14;;;;;;;3.73;1.50;;;27.10;39.60;;;;;;4947693;28;22175;-46
2022/07/16 09:29:45;;;;;;;4.10;1.97;;;27.30;39.60;;;;;;4962725;28;20465;-45
2022/07/16 09:32:34;;;;;;;2.50;1.73;;;27.40;39.20;;;;;;4964357;28;20552;-46
2022/07/16 09:35:06;;;;;;;2.57;1.70;;;27.40;39.40;;;;;;4968265;28;20477;-49
2022/07/16 09:37:54;;;;;;;1.50;1.40;;;27.30;39.10;;;;;;4968045;28;21105;-50
2022/07/16 09:40:41;;;;;;;2.37;2.17;;;27.20;39.40;;;;;;4961579;28;20476;-50
2022/07/16 09:43:11;;;;;;;2.07;1.90;;;27.20;39.40;;;;;;4942516;28;20472;-49
2022/07/16 09:45:43;;;;;;;2.90;1.80;;;27.20;39.60;;;;;;4961368;28;20206;-50
2022/07/16 09:48:30;;;;;;;3.47;1.60;;;27.30;39.60;;;;;;4942762;28;20585;-49
2022/07/16 09:51:13;;;;;;;3.77;2.07;;;27.40;39.30;;;;;;4969228;28;20457;-50
2022/07/16 09:53:43;;;;;;;2.90;2.03;;;27.50;39.40;;;;;;4970733;28;20923;-48
2022/07/16 09:56:15;;;;;;;3.40;1.70;;;27.60;39.20;;;;;;4973592;28;20493;-48
2022/07/16 09:58:49;;;;;;;2.40;1.77;;;27.70;38.70;;;;;;4974392;28;20496;-48
2022/07/16 10:01:18;;;;;;;2.90;1.87;;;27.70;38.80;;;;;;4968175;28;20589;-49
2022/07/16 10:03:46;;;;;;;2.90;1.83;;;27.80;38.50;;;;;;4952768;28;20242;-50
2022/07/16 10:06:14;;;;;;;3.17;2.00;;;28.00;38.90;;;;;;4967021;28;20497;-47
2022/07/16 10:08:43;;;;;;;1.97;1.80;;;28.20;38.40;;;;;;4966832;28;20209;-46
2022/07/16 10:11:11;;;;;;;2.10;1.90;;;28.40;38.30;;;;;;4969376;28;20977;-47
2022/07/16 10:13:42;;;;;;;3.40;2.13;;;28.60;37.50;;;;;;4965950;28;20663;-46
2022/07/16 10:16:10;;;;;;;2.80;2.00;;;28.70;37.30;;;;;;4968973;28;20226;-47
2022/07/16 10:18:43;;;;;;;3.20;1.80;;;28.80;36.70;;;;;;4965815;28;20292;-47
2022/07/16 10:21:13;;;;;;;2.57;2.27;;;28.90;36.00;;;;;;4945667;28;20257;-47
2022/07/16 10:24:01;;;;;;;1.80;1.67;;;29.00;36.20;;;;;;4967619;28;20229;-47
2022/07/16 10:26:28;;;;;;;3.03;1.60;;;29.00;36.00;;;;;;4966736;28;20901;-47
2022/07/16 10:28:55;;;;;;;4.03;1.60;;;28.90;36.40;;;;;;4948461;28;20297;-47
2022/07/16 10:32:26;;;;;;;3.10;1.52;;;29.00;35.90;;;;;;4967361;28;20296;-47
2022/07/16 10:34:40;;;;;;;1.67;1.57;;;28.90;35.80;;;;;;4968610;28;20280;-47
2022/07/16 10:37:11;;;;;;;3.37;1.73;;;28.80;35.70;;;;;;4969458;28;20260;-47
2022/07/16 10:40:14;;;;;;;2.53;1.53;;;28.50;36.20;;;;;;4966834;28;20364;-47
2022/07/16 10:42:41;;;;;;;2.70;1.50;;;28.30;36.80;;;;;;4924833;29;20255;-47
2022/07/16 10:45:08;;;;;;;2.43;1.60;;;28.20;36.70;;;;;;4958624;28;20234;-47
2022/07/16 10:47:44;;;;;;;1.80;1.70;;;28.00;36.50;;;;;;4966464;28;20911;-47
2022/07/16 10:50:22;;;;;;;9.43;2.27;;;27.80;37.20;;;;;;4968671;28;20209;-47
2022/07/16 10:52:52;;;;;;;4.47;1.77;;;27.60;38.00;;;;;;4953952;28;20536;-47
2022/07/16 10:55:31;;;;;;;3.17;1.60;;;27.50;37.70;;;;;;4967243;28;20457;-46
2022/07/16 10:57:59;;;;;;;2.33;1.50;;;27.30;38.30;;;;;;4966077;28;20583;-47
2022/07/16 11:00:27;;;;;;;3.20;1.53;;;27.20;38.50;;;;;;4966532;28;20496;-46
2022/07/16 11:02:59;;;;;;;2.43;2.00;;;27.00;38.90;;;;;;4965059;28;21193;-47
2022/07/16 11:05:43;;;;;;;2.00;1.30;;;26.90;39.20;;;;;;4965295;28;20461;-47
2022/07/16 11:08:12;;;;;;;4.37;1.97;;;26.70;39.80;;;;;;4950146;28;20469;-47
2022/07/16 11:10:40;;;;;;;4.17;2.10;;;26.50;40.50;;;;;;4961220;28;20480;-47
2022/07/16 11:13:14;;;;;;;4.73;1.90;;;26.50;40.90;;;;;;4967558;28;20563;-48
2022/07/16 11:15:41;;;;;;;3.30;2.27;;;26.50;40.80;;;;;;4965360;28;20470;-48
2022/07/16 11:18:15;;;;;;;3.00;1.83;;;26.50;40.60;;;;;;4965561;28;20588;-48
2022/07/16 11:20:44;;;;;;;3.50;2.00;;;26.40;40.00;;;;;;4965760;28;20483;-47
2022/07/16 11:23:12;;;;;;;1.80;1.70;;;26.30;40.40;;;;;;4968708;28;20832;-46
2022/07/16 11:25:54;;;;;;;1.73;1.63;;;26.20;40.60;;;;;;4948566;28;20548;-47
2022/07/16 11:28:21;;;;;;;2.23;1.63;;;26.10;40.60;;;;;;4964894;28;20469;-46
2022/07/16 11:31:05;;;;;;;2.17;1.97;;;26.00;41.40;;;;;;4967143;28;20466;-47
2022/07/16 11:33:48;;;;;;;3.70;3.00;;;26.00;41.70;;;;;;4964011;28;20471;-47
2022/07/16 11:36:15;;;;;;;3.70;2.13;;;25.90;41.50;;;;;;4950495;28;20496;-46
2022/07/16 11:38:44;;;;;;;2.10;1.57;;;25.90;41.40;;;;;;4959176;28;20921;-47
2022/07/16 11:41:11;;;;;;;1.67;1.50;;;25.90;41.50;;;;;;4966264;28;20458;-48
2022/07/16 11:43:38;;;;;;;3.30;2.07;;;26.00;41.30;;;;;;4962664;28;20851;-47
2022/07/16 11:46:05;;;;;;;1.60;1.30;;;26.00;40.90;;;;;;4963211;28;20454;-47
2022/07/16 11:48:37;;;;;;;2.70;1.57;;;26.00;41.00;;;;;;4965443;28;20867;-46
2022/07/16 11:51:08;;;;;;;2.90;2.33;;;25.90;41.40;;;;;;4965401;28;20504;-47
2022/07/16 11:53:37;;;;;;;3.30;2.40;;;25.90;41.60;;;;;;4965458;28;20558;-47
2022/07/16 11:56:05;;;;;;;3.97;2.30;;;25.90;42.20;;;;;;4948854;28;20520;-47
2022/07/16 11:58:33;;;;;;;1.60;1.50;;;25.80;41.40;;;;;;4967436;28;20585;-47
2022/07/16 12:01:00;;;;;;;3.07;2.13;;;25.80;41.00;;;;;;4965905;28;20896;-46
2022/07/16 12:03:28;;;;;;;2.20;1.67;;;25.80;41.30;;;;;;4966293;28;20462;-46
2022/07/16 12:06:07;;;;;;;2.73;2.13;;;25.80;41.80;;;;;;4966065;28;20536;-47
2022/07/16 12:08:36;;;;;;;3.73;1.60;;;25.80;41.60;;;;;;4949136;28;20461;-47
2022/07/16 12:11:05;;;;;;;1.80;1.70;;;25.70;41.70;;;;;;4967112;28;20467;-48
2022/07/16 12:13:39;;;;;;;5.30;2.23;;;25.70;41.90;;;;;;4968425;28;20504;-46
2022/07/16 12:16:11;;;;;;;2.10;1.90;;;25.70;42.60;;;;;;4970500;28;20481;-46
2022/07/16 12:18:38;;;;;;;4.07;2.33;;;25.70;43.30;;;;;;4965931;28;21291;-48
2022/07/16 12:21:28;;;;;;;3.60;2.20;;;25.70;43.40;;;;;;4971333;28;20465;-47
2022/07/16 12:23:55;;;;;;;4.23;2.43;;;25.70;42.90;;;;;;4968592;28;20973;-48
2022/07/16 12:26:34;;;;;;;2.90;2.00;;;25.70;42.80;;;;;;4968158;28;20465;-47
2022/07/16 12:29:04;;;;;;;2.43;1.87;;;25.80;42.90;;;;;;4966475;28;20854;-46
2022/07/16 12:31:32;;;;;;;2.03;1.83;;;25.80;42.90;;;;;;4968189;28;20549;-47
2022/07/16 12:34:02;;;;;;;2.50;1.50;;;25.80;43.00;;;;;;4968057;28;20504;-47
2022/07/16 12:36:33;;;;;;;3.37;2.20;;;25.80;42.30;;;;;;4967702;28;20488;-47
2022/07/16 12:39:03;;;;;;;1.90;1.80;;;25.80;42.30;;;;;;4963726;28;20504;-47
2022/07/16 12:41:33;;;;;;;2.43;2.07;;;25.90;42.50;;;;;;4967203;28;20548;-48
2022/07/16 12:44:13;;;;;;;3.43;2.03;;;25.90;43.40;;;;;;4965768;28;21016;-46
2022/07/16 12:46:44;;;;;;;2.67;2.13;;;25.80;43.70;;;;;;4963515;28;21786;-48
2022/07/16 12:49:25;;;;;;;2.67;2.47;;;25.80;43.60;;;;;;4966839;28;20877;-47
2022/07/16 12:51:59;;;;;;;2.30;2.10;;;25.70;43.90;;;;;;4948607;28;20524;-47
2022/07/16 12:58:47;;;;;;;3.93;2.50;;;25.80;43.70;;;;;;4970155;28;20878;-47
2022/07/16 13:00:00;;;;;;;4.73;2.43;;;25.90;43.90;;;;;;4968017;28;20481;-47
2022/07/16 13:02:27;;;;;;;3.10;2.30;;;25.90;43.00;;;;;;4968246;28;20453;-46
2022/07/16 13:04:54;;;;;;;2.43;2.33;;;25.90;43.30;;;;;;4954472;28;20446;-48